sensor_id;sensor_type;location;lat;lon;timestamp;pressure;altitude;pressure_sealevel;temperature;humidity
60479;BME280;46321;48.398;11.754;2023-02-02T00:01:44;96948.56;;;3.50;69.34
60479;BME280;46321;48.398;11.754;2023-02-02T00:04:15;96942.25;;;3.53;69.09
60479;BME280;46321;48.398;11.754;2023-02-02T00:06:41;96943.91;;;3.54;68.62
60479;BME280;46321;48.398;11.754;2023-02-02T00:09:13;96938.94;;;3.51;69.04
60479;BME280;46321;48.398;11.754;2023-02-02T00:11:39;96949.16;;;3.54;69.74
60479;BME280;46321;48.398;11.754;2023-02-02T00:14:04;96941.19;;;3.55;69.45
60479;BME280;46321;48.398;11.754;2023-02-02T00:19:00;96946.44;;;3.55;69.80
60479;BME280;46321;48.398;11.754;2023-02-02T00:21:26;96920.47;;;3.52;69.16
60479;BME280;46321;48.398;11.754;2023-02-02T00:23:52;96926.34;;;3.56;68.77
60479;BME280;46321;48.398;11.754;2023-02-02T00:26:18;96921.69;;;3.48;68.96
60479;BME280;46321;48.398;11.754;2023-02-02T00:28:43;96910.63;;;3.56;68.84
60479;BME280;46321;48.398;11.754;2023-02-02T00:31:08;96900.75;;;3.48;68.88
60479;BME280;46321;48.398;11.754;2023-02-02T00:33:34;96904.41;;;3.57;68.80
60479;BME280;46321;48.398;11.754;2023-02-02T00:35:59;96902.28;;;3.51;68.62
60479;BME280;46321;48.398;11.754;2023-02-02T00:38:25;96901.09;;;3.43;69.16
60479;BME280;46321;48.398;11.754;2023-02-02T00:40:50;96896.91;;;3.52;69.29
60479;BME280;46321;48.398;11.754;2023-02-02T00:43:15;96906.69;;;3.62;68.74
60479;BME280;46321;48.398;11.754;2023-02-02T00:45:40;96895.28;;;3.51;68.60
60479;BME280;46321;48.398;11.754;2023-02-02T00:48:06;96909.78;;;3.55;68.74
60479;BME280;46321;48.398;11.754;2023-02-02T00:50:32;96895.63;;;3.47;68.78
60479;BME280;46321;48.398;11.754;2023-02-02T00:52:57;96893.38;;;3.42;68.96
60479;BME280;46321;48.398;11.754;2023-02-02T00:55:25;96897.91;;;3.51;68.88
60479;BME280;46321;48.398;11.754;2023-02-02T00:57:51;96900.38;;;3.53;68.94
60479;BME280;46321;48.398;11.754;2023-02-02T01:00:22;96876.25;;;3.49;69.12
60479;BME280;46321;48.398;11.754;2023-02-02T01:02:49;96889.22;;;3.39;69.55
60479;BME280;46321;48.398;11.754;2023-02-02T01:05:14;96886.59;;;3.28;69.90
60479;BME280;46321;48.398;11.754;2023-02-02T01:07:40;96900.50;;;3.40;69.72
60479;BME280;46321;48.398;11.754;2023-02-02T01:10:08;96902.41;;;3.38;69.67
60479;BME280;46321;48.398;11.754;2023-02-02T01:12:34;96894.31;;;3.41;69.81
60479;BME280;46321;48.398;11.754;2023-02-02T01:15:01;96891.81;;;3.39;70.23
60479;BME280;46321;48.398;11.754;2023-02-02T01:17:26;96893.50;;;3.40;69.83
60479;BME280;46321;48.398;11.754;2023-02-02T01:19:51;96896.13;;;3.40;70.04
60479;BME280;46321;48.398;11.754;2023-02-02T01:22:16;96895.28;;;3.40;70.51
60479;BME280;46321;48.398;11.754;2023-02-02T01:24:42;96890.75;;;3.42;70.84
60479;BME280;46321;48.398;11.754;2023-02-02T01:27:07;96887.06;;;3.33;71.56
60479;BME280;46321;48.398;11.754;2023-02-02T01:29:32;96885.28;;;3.22;71.98
60479;BME280;46321;48.398;11.754;2023-02-02T01:31:57;96880.88;;;3.34;72.45
60479;BME280;46321;48.398;11.754;2023-02-02T01:34:37;96866.38;;;3.18;72.40
60479;BME280;46321;48.398;11.754;2023-02-02T01:37:09;96863.16;;;3.26;72.38
60479;BME280;46321;48.398;11.754;2023-02-02T01:39:34;96877.31;;;3.12;73.15
60479;BME280;46321;48.398;11.754;2023-02-02T01:42:00;96872.09;;;3.24;73.21
60479;BME280;46321;48.398;11.754;2023-02-02T01:47:29;96873.50;;;3.16;72.74
60479;BME280;46321;48.398;11.754;2023-02-02T01:49:56;96858.78;;;3.04;73.78
60479;BME280;46321;48.398;11.754;2023-02-02T01:52:23;96855.44;;;3.13;73.04
60479;BME280;46321;48.398;11.754;2023-02-02T01:54:53;96846.97;;;3.09;72.74
60479;BME280;46321;48.398;11.754;2023-02-02T01:57:26;96845.44;;;3.18;72.67
60479;BME280;46321;48.398;11.754;2023-02-02T01:59:54;96862.94;;;3.18;72.32
60479;BME280;46321;48.398;11.754;2023-02-02T02:02:20;96851.63;;;3.17;72.55
60479;BME280;46321;48.398;11.754;2023-02-02T02:04:46;96875.19;;;3.17;72.49
60479;BME280;46321;48.398;11.754;2023-02-02T02:07:13;96838.78;;;3.14;72.64
60479;BME280;46321;48.398;11.754;2023-02-02T02:09:38;96849.03;;;3.17;72.88
60479;BME280;46321;48.398;11.754;2023-02-02T02:12:10;96834.97;;;3.18;72.91
60479;BME280;46321;48.398;11.754;2023-02-02T02:14:37;96842.81;;;3.18;73.28
60479;BME280;46321;48.398;11.754;2023-02-02T02:17:39;96857.72;;;3.18;73.47
60479;BME280;46321;48.398;11.754;2023-02-02T02:20:22;96854.59;;;3.13;73.15
60479;BME280;46321;48.398;11.754;2023-02-02T02:26:50;96864.47;;;3.20;73.39
60479;BME280;46321;48.398;11.754;2023-02-02T02:29:46;96869.72;;;3.09;74.36
60479;BME280;46321;48.398;11.754;2023-02-02T02:32:29;96868.28;;;2.93;75.16
60479;BME280;46321;48.398;11.754;2023-02-02T02:35:14;96866.50;;;3.05;75.51
60479;BME280;46321;48.398;11.754;2023-02-02T02:37:49;96866.75;;;3.02;75.25
60479;BME280;46321;48.398;11.754;2023-02-02T02:40:23;96870.88;;;3.05;75.25
60479;BME280;46321;48.398;11.754;2023-02-02T02:42:55;96873.88;;;3.00;75.28
60479;BME280;46321;48.398;11.754;2023-02-02T02:45:22;96869.47;;;3.12;74.20
60479;BME280;46321;48.398;11.754;2023-02-02T02:47:49;96840.34;;;3.05;74.08
60479;BME280;46321;48.398;11.754;2023-02-02T02:50:15;96856.16;;;3.15;73.95
60479;BME280;46321;48.398;11.754;2023-02-02T02:52:40;96853.06;;;3.10;74.33
60479;BME280;46321;48.398;11.754;2023-02-02T02:55:08;96863.03;;;3.16;74.91
60479;BME280;46321;48.398;11.754;2023-02-02T02:57:40;96864.00;;;3.04;75.64
60479;BME280;46321;48.398;11.754;2023-02-02T03:03:14;96858.91;;;3.02;74.80
60479;BME280;46321;48.398;11.754;2023-02-02T03:05:55;96873.13;;;2.98;75.23
60479;BME280;46321;48.398;11.754;2023-02-02T03:08:32;96865.19;;;3.00;75.40
60479;BME280;46321;48.398;11.754;2023-02-02T03:11:00;96864.47;;;2.97;75.31
60479;BME280;46321;48.398;11.754;2023-02-02T03:13:27;96863.03;;;3.05;74.84
60479;BME280;46321;48.398;11.754;2023-02-02T03:15:53;96865.66;;;3.05;74.74
60479;BME280;46321;48.398;11.754;2023-02-02T03:18:20;96872.44;;;3.07;75.12
60479;BME280;46321;48.398;11.754;2023-02-02T03:20:47;96883.97;;;3.16;75.45
60479;BME280;46321;48.398;11.754;2023-02-02T03:23:12;96879.34;;;3.08;76.07
60479;BME280;46321;48.398;11.754;2023-02-02T03:25:38;96872.78;;;3.03;76.48
60479;BME280;46321;48.398;11.754;2023-02-02T03:28:05;96881.97;;;3.08;76.47
60479;BME280;46321;48.398;11.754;2023-02-02T03:30:30;96880.41;;;3.06;76.59
60479;BME280;46321;48.398;11.754;2023-02-02T03:32:56;96891.44;;;2.98;77.01
60479;BME280;46321;48.398;11.754;2023-02-02T03:35:22;96872.06;;;2.89;77.05
60479;BME280;46321;48.398;11.754;2023-02-02T03:37:47;96870.28;;;2.90;76.89
60479;BME280;46321;48.398;11.754;2023-02-02T03:40:13;96869.69;;;2.86;77.05
60479;BME280;46321;48.398;11.754;2023-02-02T03:42:39;96864.94;;;2.91;77.53
60479;BME280;46321;48.398;11.754;2023-02-02T03:45:05;96873.97;;;2.87;77.61
60479;BME280;46321;48.398;11.754;2023-02-02T03:47:31;96872.53;;;2.83;77.44
60479;BME280;46321;48.398;11.754;2023-02-02T03:49:57;96869.06;;;2.82;77.87
60479;BME280;46321;48.398;11.754;2023-02-02T03:52:23;96840.09;;;2.85;77.89
60479;BME280;46321;48.398;11.754;2023-02-02T03:54:49;96851.16;;;2.78;77.92
60479;BME280;46321;48.398;11.754;2023-02-02T03:57:14;96862.56;;;2.88;78.20
60479;BME280;46321;48.398;11.754;2023-02-02T03:59:39;96859.34;;;2.84;78.06
60479;BME280;46321;48.398;11.754;2023-02-02T04:02:05;96860.06;;;2.86;77.96
60479;BME280;46321;48.398;11.754;2023-02-02T04:04:30;96866.25;;;2.85;78.01
60479;BME280;46321;48.398;11.754;2023-02-02T04:06:55;96862.66;;;2.75;78.06
60479;BME280;46321;48.398;11.754;2023-02-02T04:09:22;96863.97;;;2.81;78.23
60479;BME280;46321;48.398;11.754;2023-02-02T04:11:47;96857.34;;;2.88;78.05
60479;BME280;46321;48.398;11.754;2023-02-02T04:14:13;96876.22;;;2.80;78.38
60479;BME280;46321;48.398;11.754;2023-02-02T04:16:38;96862.91;;;2.83;78.40
60479;BME280;46321;48.398;11.754;2023-02-02T04:19:03;96873.88;;;2.89;78.42
60479;BME280;46321;48.398;11.754;2023-02-02T04:21:29;96882.28;;;2.92;78.40
60479;BME280;46321;48.398;11.754;2023-02-02T04:23:55;96866.34;;;2.72;79.05
60479;BME280;46321;48.398;11.754;2023-02-02T04:26:20;96874.44;;;2.81;78.56
60479;BME280;46321;48.398;11.754;2023-02-02T04:28:46;96870.03;;;2.81;78.96
60479;BME280;46321;48.398;11.754;2023-02-02T04:31:11;96866.84;;;2.78;79.58
60479;BME280;46321;48.398;11.754;2023-02-02T04:33:36;96875.75;;;2.75;79.85
60479;BME280;46321;48.398;11.754;2023-02-02T04:36:02;96880.63;;;2.80;80.09
60479;BME280;46321;48.398;11.754;2023-02-02T04:38:28;96884.41;;;2.75;80.36
60479;BME280;46321;48.398;11.754;2023-02-02T04:40:53;96882.50;;;2.66;81.49
60479;BME280;46321;48.398;11.754;2023-02-02T04:43:18;96873.13;;;2.75;80.71
60479;BME280;46321;48.398;11.754;2023-02-02T04:45:43;96878.72;;;2.82;80.84
60479;BME280;46321;48.398;11.754;2023-02-02T04:48:09;96870.88;;;2.82;81.06
60479;BME280;46321;48.398;11.754;2023-02-02T04:50:34;96879.44;;;2.84;80.88
60479;BME280;46321;48.398;11.754;2023-02-02T04:53:00;96871.09;;;2.79;80.77
60479;BME280;46321;48.398;11.754;2023-02-02T04:55:25;96886.78;;;2.79;80.90
60479;BME280;46321;48.398;11.754;2023-02-02T04:57:50;96883.47;;;2.77;80.99
60479;BME280;46321;48.398;11.754;2023-02-02T05:00:16;96890.59;;;2.74;81.60
60479;BME280;46321;48.398;11.754;2023-02-02T05:02:41;96892.03;;;2.79;81.13
60479;BME280;46321;48.398;11.754;2023-02-02T05:05:10;96892.84;;;2.79;81.33
60479;BME280;46321;48.398;11.754;2023-02-02T05:07:36;96890.38;;;2.78;81.36
60479;BME280;46321;48.398;11.754;2023-02-02T05:10:03;96894.50;;;2.80;81.31
60479;BME280;46321;48.398;11.754;2023-02-02T05:12:29;96902.25;;;2.82;81.35
60479;BME280;46321;48.398;11.754;2023-02-02T05:14:54;96897.03;;;2.82;81.48
60479;BME280;46321;48.398;11.754;2023-02-02T05:17:19;96873.75;;;2.90;80.75
60479;BME280;46321;48.398;11.754;2023-02-02T05:19:44;96901.06;;;2.86;80.88
60479;BME280;46321;48.398;11.754;2023-02-02T05:22:10;96898.22;;;2.89;80.69
60479;BME280;46321;48.398;11.754;2023-02-02T05:24:35;96909.38;;;2.80;81.35
60479;BME280;46321;48.398;11.754;2023-02-02T05:27:00;96906.31;;;2.86;81.16
60479;BME280;46321;48.398;11.754;2023-02-02T05:29:27;96903.06;;;2.82;80.86
60479;BME280;46321;48.398;11.754;2023-02-02T05:31:53;96906.41;;;2.96;81.17
60479;BME280;46321;48.398;11.754;2023-02-02T05:34:18;96898.22;;;2.89;80.69
60479;BME280;46321;48.398;11.754;2023-02-02T05:36:44;96898.00;;;2.92;80.57
60479;BME280;46321;48.398;11.754;2023-02-02T05:39:09;96896.78;;;2.96;80.36
60479;BME280;46321;48.398;11.754;2023-02-02T05:41:35;96881.34;;;2.93;79.80
60479;BME280;46321;48.398;11.754;2023-02-02T05:44:00;96890.63;;;2.97;79.79
60479;BME280;46321;48.398;11.754;2023-02-02T05:46:26;96889.44;;;3.02;79.62
60479;BME280;46321;48.398;11.754;2023-02-02T05:48:51;96896.56;;;3.00;79.57
60479;BME280;46321;48.398;11.754;2023-02-02T05:51:20;96900.00;;;3.12;79.46
60479;BME280;46321;48.398;11.754;2023-02-02T05:53:47;96892.28;;;3.10;79.86
60479;BME280;46321;48.398;11.754;2023-02-02T05:56:13;96900.81;;;2.89;80.19
60479;BME280;46321;48.398;11.754;2023-02-02T05:58:40;96919.44;;;3.09;80.32
60479;BME280;46321;48.398;11.754;2023-02-02T06:01:05;96912.38;;;2.98;81.09
60479;BME280;46321;48.398;11.754;2023-02-02T06:03:30;96912.38;;;3.09;80.57
60479;BME280;46321;48.398;11.754;2023-02-02T06:05:56;96914.44;;;3.17;80.70
60479;BME280;46321;48.398;11.754;2023-02-02T06:08:21;96917.38;;;3.13;80.54
60479;BME280;46321;48.398;11.754;2023-02-02T06:10:46;96910.84;;;3.18;80.18
60479;BME280;46321;48.398;11.754;2023-02-02T06:13:11;96911.94;;;3.16;80.26
60479;BME280;46321;48.398;11.754;2023-02-02T06:15:37;96907.75;;;3.02;80.31
60479;BME280;46321;48.398;11.754;2023-02-02T06:18:03;96915.84;;;3.10;79.80
60479;BME280;46321;48.398;11.754;2023-02-02T06:20:30;96913.47;;;3.18;79.41
60479;BME280;46321;48.398;11.754;2023-02-02T06:22:56;96921.31;;;3.18;79.31
60479;BME280;46321;48.398;11.754;2023-02-02T06:25:21;96910.13;;;3.16;79.56
60479;BME280;46321;48.398;11.754;2023-02-02T06:27:46;96911.34;;;3.24;79.17
60479;BME280;46321;48.398;11.754;2023-02-02T06:30:13;96910.03;;;3.18;78.70
60479;BME280;46321;48.398;11.754;2023-02-02T06:32:39;96941.88;;;3.23;78.79
60479;BME280;46321;48.398;11.754;2023-02-02T06:35:05;96929.44;;;3.27;78.73
60479;BME280;46321;48.398;11.754;2023-02-02T06:37:30;96928.47;;;3.28;78.78
60479;BME280;46321;48.398;11.754;2023-02-02T06:39:55;96933.09;;;3.24;79.11
60479;BME280;46321;48.398;11.754;2023-02-02T06:42:21;96930.84;;;3.19;78.25
60479;BME280;46321;48.398;11.754;2023-02-02T06:44:46;96932.63;;;3.30;78.61
60479;BME280;46321;48.398;11.754;2023-02-02T06:47:11;96923.47;;;3.25;79.07
60479;BME280;46321;48.398;11.754;2023-02-02T06:49:37;96937.72;;;3.32;79.17
60479;BME280;46321;48.398;11.754;2023-02-02T06:52:02;96941.78;;;3.36;78.95
60479;BME280;46321;48.398;11.754;2023-02-02T06:54:27;96945.94;;;3.27;78.96
60479;BME280;46321;48.398;11.754;2023-02-02T06:56:52;96943.81;;;3.32;79.00
60479;BME280;46321;48.398;11.754;2023-02-02T06:59:19;96944.28;;;3.38;79.18
60479;BME280;46321;48.398;11.754;2023-02-02T07:01:44;96947.50;;;3.30;79.07
60479;BME280;46321;48.398;11.754;2023-02-02T07:04:09;96942.88;;;3.34;79.29
60479;BME280;46321;48.398;11.754;2023-02-02T07:06:35;96957.25;;;3.28;79.81
60479;BME280;46321;48.398;11.754;2023-02-02T07:09:00;96945.00;;;3.28;79.63
60479;BME280;46321;48.398;11.754;2023-02-02T07:11:25;96946.66;;;3.18;79.89
60479;BME280;46321;48.398;11.754;2023-02-02T07:13:51;96961.03;;;3.24;80.07
60479;BME280;46321;48.398;11.754;2023-02-02T07:16:17;96957.84;;;3.20;80.02
60479;BME280;46321;48.398;11.754;2023-02-02T07:18:43;96968.69;;;3.27;79.84
60479;BME280;46321;48.398;11.754;2023-02-02T07:21:16;96968.41;;;3.30;79.83
60479;BME280;46321;48.398;11.754;2023-02-02T07:23:42;96967.34;;;3.32;79.70
60479;BME280;46321;48.398;11.754;2023-02-02T07:26:09;96973.19;;;3.25;80.04
60479;BME280;46321;48.398;11.754;2023-02-02T07:28:35;96969.59;;;3.26;80.34
60479;BME280;46321;48.398;11.754;2023-02-02T07:31:12;96986.28;;;3.25;80.71
60479;BME280;46321;48.398;11.754;2023-02-02T07:33:40;96977.47;;;3.26;80.54
60479;BME280;46321;48.398;11.754;2023-02-02T07:36:05;96990.53;;;3.26;80.90
60479;BME280;46321;48.398;11.754;2023-02-02T07:38:31;96984.09;;;3.18;81.46
60479;BME280;46321;48.398;11.754;2023-02-02T07:40:59;96980.91;;;3.26;81.26
60479;BME280;46321;48.398;11.754;2023-02-02T07:43:25;96979.84;;;3.17;81.87
60479;BME280;46321;48.398;11.754;2023-02-02T07:45:50;96988.06;;;3.24;81.96
60479;BME280;46321;48.398;11.754;2023-02-02T07:48:15;96978.66;;;3.22;81.75
60479;BME280;46321;48.398;11.754;2023-02-02T07:50:41;96992.94;;;3.29;81.50
60479;BME280;46321;48.398;11.754;2023-02-02T07:53:06;96987.81;;;3.27;81.71
60479;BME280;46321;48.398;11.754;2023-02-02T07:55:31;96990.19;;;3.30;81.29
60479;BME280;46321;48.398;11.754;2023-02-02T07:57:56;96991.50;;;3.36;81.21
60479;BME280;46321;48.398;11.754;2023-02-02T08:00:24;96999.22;;;3.26;81.97
60479;BME280;46321;48.398;11.754;2023-02-02T08:02:49;96998.75;;;3.32;81.70
60479;BME280;46321;48.398;11.754;2023-02-02T08:05:15;96998.88;;;3.31;81.66
60479;BME280;46321;48.398;11.754;2023-02-02T08:07:40;97005.31;;;3.38;81.61
60479;BME280;46321;48.398;11.754;2023-02-02T08:10:06;97005.69;;;3.34;81.01
60479;BME280;46321;48.398;11.754;2023-02-02T08:12:31;97014.00;;;3.39;81.22
60479;BME280;46321;48.398;11.754;2023-02-02T08:14:56;97009.09;;;3.34;80.88
60479;BME280;46321;48.398;11.754;2023-02-02T08:17:23;97026.59;;;3.45;80.85
60479;BME280;46321;48.398;11.754;2023-02-02T08:19:48;97011.75;;;3.46;80.12
60479;BME280;46321;48.398;11.754;2023-02-02T08:22:14;97015.53;;;3.41;80.41
60479;BME280;46321;48.398;11.754;2023-02-02T08:24:39;97019.84;;;3.42;80.35
60479;BME280;46321;48.398;11.754;2023-02-02T08:27:07;97014.34;;;3.46;79.59
60479;BME280;46321;48.398;11.754;2023-02-02T08:29:34;97014.34;;;3.46;80.19
60479;BME280;46321;48.398;11.754;2023-02-02T08:31:59;97015.41;;;3.43;80.37
60479;BME280;46321;48.398;11.754;2023-02-02T08:34:25;97019.84;;;3.42;80.30
60479;BME280;46321;48.398;11.754;2023-02-02T08:36:50;97029.47;;;3.42;79.65
60479;BME280;46321;48.398;11.754;2023-02-02T08:39:15;97021.03;;;3.50;79.88
60479;BME280;46321;48.398;11.754;2023-02-02T08:41:41;97030.44;;;3.52;79.83
60479;BME280;46321;48.398;11.754;2023-02-02T08:44:07;97026.50;;;3.47;80.30
60479;BME280;46321;48.398;11.754;2023-02-02T08:46:34;97024.13;;;3.43;80.02
60479;BME280;46321;48.398;11.754;2023-02-02T08:48:59;97022.69;;;3.51;79.97
60479;BME280;46321;48.398;11.754;2023-02-02T08:51:24;97030.44;;;3.52;79.82
60479;BME280;46321;48.398;11.754;2023-02-02T08:53:50;97025.94;;;3.89;78.19
60479;BME280;46321;48.398;11.754;2023-02-02T08:56:21;97028.41;;;3.91;77.99
60479;BME280;46321;48.398;11.754;2023-02-02T08:58:49;97019.13;;;3.98;77.55
60479;BME280;46321;48.398;11.754;2023-02-02T09:01:23;97037.34;;;3.99;77.14
60479;BME280;46321;48.398;11.754;2023-02-02T09:03:56;97036.28;;;4.02;77.26
60479;BME280;46321;48.398;11.754;2023-02-02T09:06:27;97032.94;;;4.00;77.19
60479;BME280;46321;48.398;11.754;2023-02-02T09:08:53;97037.22;;;4.01;77.44
60479;BME280;46321;48.398;11.754;2023-02-02T09:11:19;97053.19;;;4.09;76.83
60479;BME280;46321;48.398;11.754;2023-02-02T09:13:46;97042.72;;;4.09;76.42
60479;BME280;46321;48.398;11.754;2023-02-02T09:16:16;97046.75;;;4.14;76.69
60479;BME280;46321;48.398;11.754;2023-02-02T09:18:43;97036.75;;;4.07;77.33
60479;BME280;46321;48.398;11.754;2023-02-02T09:21:11;97044.84;;;4.16;77.00
60479;BME280;46321;48.398;11.754;2023-02-02T09:23:39;97039.38;;;4.19;76.68
60479;BME280;46321;48.398;11.754;2023-02-02T09:26:25;97040.19;;;4.08;76.90
60479;BME280;46321;48.398;11.754;2023-02-02T09:28:55;97063.06;;;4.17;76.73
60479;BME280;46321;48.398;11.754;2023-02-02T09:31:22;97059.59;;;4.17;76.71
60479;BME280;46321;48.398;11.754;2023-02-02T09:33:48;97059.59;;;4.28;76.31
60479;BME280;46321;48.398;11.754;2023-02-02T09:36:18;97071.41;;;4.34;76.78
60479;BME280;46321;48.398;11.754;2023-02-02T09:38:47;97068.06;;;4.32;76.69
60479;BME280;46321;48.398;11.754;2023-02-02T09:49:57;97067.72;;;4.14;77.05
60479;BME280;46321;48.398;11.754;2023-02-02T09:52:28;97072.97;;;4.25;76.54
60479;BME280;46321;48.398;11.754;2023-02-02T09:55:02;97066.78;;;4.03;77.52
60479;BME280;46321;48.398;11.754;2023-02-02T09:57:35;97065.09;;;4.14;77.42
60479;BME280;46321;48.398;11.754;2023-02-02T10:00:01;97055.47;;;4.14;77.26
60479;BME280;46321;48.398;11.754;2023-02-02T10:02:38;97063.41;;;4.12;77.94
60479;BME280;46321;48.398;11.754;2023-02-02T10:05:14;97072.47;;;4.08;77.87
60479;BME280;46321;48.398;11.754;2023-02-02T10:07:44;97071.06;;;4.16;78.31
60479;BME280;46321;48.398;11.754;2023-02-02T10:10:17;97067.22;;;4.20;78.27
60479;BME280;46321;48.398;11.754;2023-02-02T10:15:38;97067.94;;;4.33;78.26
60479;BME280;46321;48.398;11.754;2023-02-02T10:21:10;97064.38;;;4.23;78.81
60479;BME280;46321;48.398;11.754;2023-02-02T10:23:39;97057.81;;;4.29;79.02
60479;BME280;46321;48.398;11.754;2023-02-02T10:31:14;97058.53;;;4.19;78.95
60479;BME280;46321;48.398;11.754;2023-02-02T10:33:43;97061.50;;;4.38;78.89
60479;BME280;46321;48.398;11.754;2023-02-02T10:36:25;97049.09;;;4.40;78.91
60479;BME280;46321;48.398;11.754;2023-02-02T10:39:01;97059.56;;;4.40;79.47
60479;BME280;46321;48.398;11.754;2023-02-02T10:41:32;97060.19;;;4.43;79.01
60479;BME280;46321;48.398;11.754;2023-02-02T10:44:13;97053.50;;;4.39;79.45
60479;BME280;46321;48.398;11.754;2023-02-02T10:46:45;97052.91;;;4.35;79.59
60479;BME280;46321;48.398;11.754;2023-02-02T10:52:15;97059.84;;;4.25;80.25
60479;BME280;46321;48.398;11.754;2023-02-02T10:54:46;97054.81;;;4.33;80.17
60479;BME280;46321;48.398;11.754;2023-02-02T10:57:19;97048.25;;;4.39;79.80
60479;BME280;46321;48.398;11.754;2023-02-02T11:00:05;97051.47;;;4.43;80.42
60479;BME280;46321;48.398;11.754;2023-02-02T11:02:34;97051.13;;;4.36;80.35
60479;BME280;46321;48.398;11.754;2023-02-02T11:04:59;97054.69;;;4.35;80.17
60479;BME280;46321;48.398;11.754;2023-02-02T11:07:43;97050.50;;;4.44;80.46
60479;BME280;46321;48.398;11.754;2023-02-02T11:10:09;97068.78;;;4.34;80.52
60479;BME280;46321;48.398;11.754;2023-02-02T11:12:36;97060.19;;;4.32;80.38
60479;BME280;46321;48.398;11.754;2023-02-02T11:15:08;97061.00;;;4.44;80.14
60479;BME280;46321;48.398;11.754;2023-02-02T11:17:46;97068.88;;;4.32;80.11
60479;BME280;46321;48.398;11.754;2023-02-02T11:20:26;97071.97;;;4.38;80.28
60479;BME280;46321;48.398;11.754;2023-02-02T11:23:00;97072.44;;;4.43;80.77
60479;BME280;46321;48.398;11.754;2023-02-02T11:25:34;97070.53;;;4.45;80.58
60479;BME280;46321;48.398;11.754;2023-02-02T11:28:10;97074.94;;;4.44;80.94
60479;BME280;46321;48.398;11.754;2023-02-02T11:30:45;97072.91;;;4.48;81.05
60479;BME280;46321;48.398;11.754;2023-02-02T11:33:33;97066.13;;;4.45;80.34
60479;BME280;46321;48.398;11.754;2023-02-02T11:36:04;97076.50;;;4.47;80.35
60479;BME280;46321;48.398;11.754;2023-02-02T11:38:30;97071.25;;;4.47;80.92
60479;BME280;46321;48.398;11.754;2023-02-02T11:41:08;97080.75;;;4.48;80.78
60479;BME280;46321;48.398;11.754;2023-02-02T11:43:52;97078.75;;;4.40;80.66
60479;BME280;46321;48.398;11.754;2023-02-02T11:46:21;97085.09;;;4.38;81.09
60479;BME280;46321;48.398;11.754;2023-02-02T11:49:11;97081.88;;;4.34;81.53
60479;BME280;46321;48.398;11.754;2023-02-02T11:51:39;97074.00;;;4.34;81.01
60479;BME280;46321;48.398;11.754;2023-02-02T11:54:08;97083.19;;;4.28;81.32
60479;BME280;46321;48.398;11.754;2023-02-02T11:56:39;97071.97;;;4.38;81.54
60479;BME280;46321;48.398;11.754;2023-02-02T11:59:05;97080.81;;;4.37;81.91
60479;BME280;46321;48.398;11.754;2023-02-02T12:01:50;97081.16;;;4.43;81.22
60479;BME280;46321;48.398;11.754;2023-02-02T12:06:40;97070.31;;;4.37;81.38
60479;BME280;46321;48.398;11.754;2023-02-02T12:09:19;97076.50;;;4.24;82.44
60479;BME280;46321;48.398;11.754;2023-02-02T12:14:30;97074.00;;;4.45;81.31
60479;BME280;46321;48.398;11.754;2023-02-02T12:17:32;97083.31;;;4.27;81.85
60479;BME280;46321;48.398;11.754;2023-02-02T12:20:25;97072.47;;;4.31;81.46
60479;BME280;46321;48.398;11.754;2023-02-02T12:26:02;97069.69;;;4.44;81.76
60479;BME280;46321;48.398;11.754;2023-02-02T12:28:47;97061.97;;;4.31;82.00
60479;BME280;46321;48.398;11.754;2023-02-02T12:31:36;97075.66;;;4.46;81.47
60479;BME280;46321;48.398;11.754;2023-02-02T12:42:51;97055.03;;;4.53;81.50
60479;BME280;46321;48.398;11.754;2023-02-02T12:53:58;97074.81;;;4.46;81.74
60479;BME280;46321;48.398;11.754;2023-02-02T12:56:35;97077.19;;;4.49;81.60
60479;BME280;46321;48.398;11.754;2023-02-02T13:02:35;97065.31;;;4.33;82.05
60479;BME280;46321;48.398;11.754;2023-02-02T13:05:24;97077.47;;;4.34;82.28
60479;BME280;46321;48.398;11.754;2023-02-02T13:07:57;97074.72;;;4.36;82.07
60479;BME280;46321;48.398;11.754;2023-02-02T13:10:32;97083.78;;;4.43;82.13
60479;BME280;46321;48.398;11.754;2023-02-02T13:13:13;97085.28;;;4.46;82.00
60479;BME280;46321;48.398;11.754;2023-02-02T13:15:45;97079.84;;;4.38;82.35
60479;BME280;46321;48.398;11.754;2023-02-02T13:18:45;97094.50;;;4.40;82.20
60479;BME280;46321;48.398;11.754;2023-02-02T13:21:14;97097.13;;;4.40;82.25
60479;BME280;46321;48.398;11.754;2023-02-02T13:23:46;97083.88;;;4.42;82.41
60479;BME280;46321;48.398;11.754;2023-02-02T13:26:31;97106.88;;;4.50;82.03
60479;BME280;46321;48.398;11.754;2023-02-02T13:29:10;97095.78;;;4.46;82.62
60479;BME280;46321;48.398;11.754;2023-02-02T13:34:43;97088.41;;;4.51;81.74
60479;BME280;46321;48.398;11.754;2023-02-02T13:37:27;97099.97;;;4.37;81.60
60479;BME280;46321;48.398;11.754;2023-02-02T13:51:26;97120.34;;;4.22;83.54
60479;BME280;46321;48.398;11.754;2023-02-02T14:01:49;97119.28;;;4.01;83.64
60479;BME280;46321;48.398;11.754;2023-02-02T14:04:26;97124.19;;;4.18;83.14
60479;BME280;46321;48.398;11.754;2023-02-02T14:07:03;97122.97;;;4.10;83.73
60479;BME280;46321;48.398;11.754;2023-02-02T14:09:35;97142.88;;;4.13;83.99
60479;BME280;46321;48.398;11.754;2023-02-02T14:12:03;97127.03;;;4.03;83.62
60479;BME280;46321;48.398;11.754;2023-02-02T14:14:31;97143.94;;;4.10;83.37
60479;BME280;46321;48.398;11.754;2023-02-02T14:22:02;97148.34;;;3.98;84.15
60479;BME280;46321;48.398;11.754;2023-02-02T14:27:01;97130.47;;;4.04;83.79
60479;BME280;46321;48.398;11.754;2023-02-02T14:34:43;97147.03;;;4.04;84.03
60479;BME280;46321;48.398;11.754;2023-02-02T14:37:25;97137.63;;;4.01;83.75
60479;BME280;46321;48.398;11.754;2023-02-02T14:48:37;97160.00;;;3.94;84.27
60479;BME280;46321;48.398;11.754;2023-02-02T14:51:12;97169.03;;;3.90;84.23
60479;BME280;46321;48.398;11.754;2023-02-02T14:53:39;97168.22;;;3.89;84.36
60479;BME280;46321;48.398;11.754;2023-02-02T14:56:13;97164.41;;;3.94;85.15
60479;BME280;46321;48.398;11.754;2023-02-02T14:58:43;97167.13;;;3.92;85.12